sensor_id;sensor_type;location;lat;lon;timestamp;P1;durP1;ratioP1;P2;durP2;ratioP2
20734;SDS011;10528;52.124;5.196;2023-11-21T00:02:27;18.88;;;9.00;;
20734;SDS011;10528;52.124;5.196;2023-11-21T00:04:54;15.18;;;9.25;;
20734;SDS011;10528;52.124;5.196;2023-11-21T00:07:21;17.45;;;9.40;;
20734;SDS011;10528;52.124;5.196;2023-11-21T00:09:48;17.00;;;9.30;;
20734;SDS011;10528;52.124;5.196;2023-11-21T00:12:15;15.40;;;9.20;;
20734;SDS011;10528;52.124;5.196;2023-11-21T00:14:42;17.48;;;9.40;;
20734;SDS011;10528;52.124;5.196;2023-11-21T00:17:09;14.07;;;9.20;;
20734;SDS011;10528;52.124;5.196;2023-11-21T00:19:36;13.95;;;8.85;;
20734;SDS011;10528;52.124;5.196;2023-11-21T00:22:03;14.60;;;9.05;;
20734;SDS011;10528;52.124;5.196;2023-11-21T00:24:30;18.92;;;8.75;;
20734;SDS011;10528;52.124;5.196;2023-11-21T00:26:58;17.23;;;9.30;;
20734;SDS011;10528;52.124;5.196;2023-11-21T00:29:25;15.43;;;8.63;;
20734;SDS011;10528;52.124;5.196;2023-11-21T00:31:52;15.63;;;8.88;;
20734;SDS011;10528;52.124;5.196;2023-11-21T00:34:19;15.60;;;8.52;;
20734;SDS011;10528;52.124;5.196;2023-11-21T00:36:46;14.90;;;9.00;;
20734;SDS011;10528;52.124;5.196;2023-11-21T00:39:13;15.63;;;8.48;;
20734;SDS011;10528;52.124;5.196;2023-11-21T00:41:40;15.35;;;8.85;;
20734;SDS011;10528;52.124;5.196;2023-11-21T00:44:08;11.48;;;7.88;;
20734;SDS011;10528;52.124;5.196;2023-11-21T00:46:35;12.95;;;8.18;;
20734;SDS011;10528;52.124;5.196;2023-11-21T00:49:02;16.45;;;8.68;;
20734;SDS011;10528;52.124;5.196;2023-11-21T00:51:32;13.38;;;7.85;;
20734;SDS011;10528;52.124;5.196;2023-11-21T00:53:59;15.60;;;8.30;;
20734;SDS011;10528;52.124;5.196;2023-11-21T00:56:26;18.05;;;9.00;;
20734;SDS011;10528;52.124;5.196;2023-11-21T00:58:53;16.90;;;8.45;;
20734;SDS011;10528;52.124;5.196;2023-11-21T01:01:20;15.02;;;8.13;;
20734;SDS011;10528;52.124;5.196;2023-11-21T01:03:51;15.35;;;8.25;;
20734;SDS011;10528;52.124;5.196;2023-11-21T01:06:18;15.48;;;8.32;;
20734;SDS011;10528;52.124;5.196;2023-11-21T01:08:47;16.27;;;8.70;;
20734;SDS011;10528;52.124;5.196;2023-11-21T01:11:14;15.93;;;9.30;;
20734;SDS011;10528;52.124;5.196;2023-11-21T01:13:42;19.55;;;9.15;;
20734;SDS011;10528;52.124;5.196;2023-11-21T01:16:09;14.88;;;8.43;;
20734;SDS011;10528;52.124;5.196;2023-11-21T01:18:36;14.38;;;8.40;;
20734;SDS011;10528;52.124;5.196;2023-11-21T01:21:03;15.27;;;8.40;;
20734;SDS011;10528;52.124;5.196;2023-11-21T01:23:30;21.38;;;9.38;;
20734;SDS011;10528;52.124;5.196;2023-11-21T01:25:57;14.52;;;9.00;;
20734;SDS011;10528;52.124;5.196;2023-11-21T01:28:24;14.93;;;8.75;;
20734;SDS011;10528;52.124;5.196;2023-11-21T01:30:52;16.95;;;9.00;;
20734;SDS011;10528;52.124;5.196;2023-11-21T01:33:22;20.95;;;9.70;;
20734;SDS011;10528;52.124;5.196;2023-11-21T01:35:51;17.75;;;9.20;;
20734;SDS011;10528;52.124;5.196;2023-11-21T01:38:21;14.55;;;8.18;;
20734;SDS011;10528;52.124;5.196;2023-11-21T01:40:48;17.75;;;9.55;;
20734;SDS011;10528;52.124;5.196;2023-11-21T01:43:15;16.10;;;9.57;;
20734;SDS011;10528;52.124;5.196;2023-11-21T01:45:43;19.90;;;10.20;;
20734;SDS011;10528;52.124;5.196;2023-11-21T01:48:11;16.63;;;9.30;;
20734;SDS011;10528;52.124;5.196;2023-11-21T01:50:40;16.13;;;9.35;;
20734;SDS011;10528;52.124;5.196;2023-11-21T01:53:08;15.23;;;8.68;;
20734;SDS011;10528;52.124;5.196;2023-11-21T01:55:39;15.23;;;8.80;;
20734;SDS011;10528;52.124;5.196;2023-11-21T01:58:09;17.77;;;8.68;;
20734;SDS011;10528;52.124;5.196;2023-11-21T02:00:38;17.15;;;9.10;;
20734;SDS011;10528;52.124;5.196;2023-11-21T02:03:05;14.93;;;8.32;;
20734;SDS011;10528;52.124;5.196;2023-11-21T02:05:33;15.90;;;8.93;;
20734;SDS011;10528;52.124;5.196;2023-11-21T02:08:00;16.40;;;9.18;;
20734;SDS011;10528;52.124;5.196;2023-11-21T02:10:28;14.73;;;8.65;;
20734;SDS011;10528;52.124;5.196;2023-11-21T02:12:57;15.93;;;9.02;;
20734;SDS011;10528;52.124;5.196;2023-11-21T02:15:25;16.40;;;8.38;;
20734;SDS011;10528;52.124;5.196;2023-11-21T02:17:55;12.35;;;7.13;;
20734;SDS011;10528;52.124;5.196;2023-11-21T02:20:25;14.73;;;8.20;;
20734;SDS011;10528;52.124;5.196;2023-11-21T02:22:53;12.63;;;7.45;;
20734;SDS011;10528;52.124;5.196;2023-11-21T02:27:57;13.90;;;7.93;;
20734;SDS011;10528;52.124;5.196;2023-11-21T02:30:27;12.38;;;7.65;;
20734;SDS011;10528;52.124;5.196;2023-11-21T02:32:55;14.40;;;7.93;;
20734;SDS011;10528;52.124;5.196;2023-11-21T02:35:25;15.70;;;8.30;;
20734;SDS011;10528;52.124;5.196;2023-11-21T02:37:53;12.00;;;7.50;;
20734;SDS011;10528;52.124;5.196;2023-11-21T02:40:21;12.60;;;7.35;;
20734;SDS011;10528;52.124;5.196;2023-11-21T02:42:48;11.18;;;7.45;;
20734;SDS011;10528;52.124;5.196;2023-11-21T02:45:18;12.38;;;7.53;;
20734;SDS011;10528;52.124;5.196;2023-11-21T02:47:48;15.15;;;7.85;;
20734;SDS011;10528;52.124;5.196;2023-11-21T02:50:20;10.85;;;6.90;;
20734;SDS011;10528;52.124;5.196;2023-11-21T02:52:50;10.55;;;6.80;;
20734;SDS011;10528;52.124;5.196;2023-11-21T02:55:17;12.32;;;6.47;;
20734;SDS011;10528;52.124;5.196;2023-11-21T02:57:45;11.38;;;7.15;;
20734;SDS011;10528;52.124;5.196;2023-11-21T03:00:12;13.52;;;7.70;;
20734;SDS011;10528;52.124;5.196;2023-11-21T03:02:41;15.30;;;7.07;;
20734;SDS011;10528;52.124;5.196;2023-11-21T03:05:09;11.60;;;7.25;;
20734;SDS011;10528;52.124;5.196;2023-11-21T03:07:37;10.60;;;6.82;;
20734;SDS011;10528;52.124;5.196;2023-11-21T03:10:05;11.88;;;7.40;;
20734;SDS011;10528;52.124;5.196;2023-11-21T03:12:35;12.23;;;7.32;;
20734;SDS011;10528;52.124;5.196;2023-11-21T03:15:04;12.05;;;7.13;;
20734;SDS011;10528;52.124;5.196;2023-11-21T03:17:33;12.32;;;7.18;;
20734;SDS011;10528;52.124;5.196;2023-11-21T03:20:00;12.73;;;7.57;;
20734;SDS011;10528;52.124;5.196;2023-11-21T03:22:27;13.82;;;6.68;;
20734;SDS011;10528;52.124;5.196;2023-11-21T03:24:54;12.95;;;7.32;;
20734;SDS011;10528;52.124;5.196;2023-11-21T03:27:21;11.20;;;6.93;;
20734;SDS011;10528;52.124;5.196;2023-11-21T03:29:48;18.42;;;7.05;;
20734;SDS011;10528;52.124;5.196;2023-11-21T03:32:16;13.07;;;6.63;;
20734;SDS011;10528;52.124;5.196;2023-11-21T03:34:55;13.40;;;6.88;;
20734;SDS011;10528;52.124;5.196;2023-11-21T03:37:26;13.95;;;7.45;;
20734;SDS011;10528;52.124;5.196;2023-11-21T03:39:55;12.80;;;6.85;;
20734;SDS011;10528;52.124;5.196;2023-11-21T03:42:23;10.85;;;6.53;;
20734;SDS011;10528;52.124;5.196;2023-11-21T03:44:54;11.63;;;7.28;;
20734;SDS011;10528;52.124;5.196;2023-11-21T03:47:21;10.70;;;6.55;;
20734;SDS011;10528;52.124;5.196;2023-11-21T03:49:48;12.60;;;6.95;;
20734;SDS011;10528;52.124;5.196;2023-11-21T03:52:15;13.48;;;6.55;;
20734;SDS011;10528;52.124;5.196;2023-11-21T03:54:43;12.60;;;6.88;;
20734;SDS011;10528;52.124;5.196;2023-11-21T03:57:10;10.23;;;6.93;;
20734;SDS011;10528;52.124;5.196;2023-11-21T03:59:42;11.23;;;6.80;;
20734;SDS011;10528;52.124;5.196;2023-11-21T04:02:09;12.60;;;7.15;;
20734;SDS011;10528;52.124;5.196;2023-11-21T04:04:36;13.30;;;7.20;;
20734;SDS011;10528;52.124;5.196;2023-11-21T04:07:04;10.73;;;7.40;;
20734;SDS011;10528;52.124;5.196;2023-11-21T04:09:31;17.70;;;7.95;;
20734;SDS011;10528;52.124;5.196;2023-11-21T04:11:58;14.13;;;8.55;;
20734;SDS011;10528;52.124;5.196;2023-11-21T04:14:25;12.73;;;7.93;;
20734;SDS011;10528;52.124;5.196;2023-11-21T04:16:52;14.15;;;7.63;;
20734;SDS011;10528;52.124;5.196;2023-11-21T04:19:20;15.05;;;7.30;;
20734;SDS011;10528;52.124;5.196;2023-11-21T04:21:47;11.38;;;7.07;;
20734;SDS011;10528;52.124;5.196;2023-11-21T04:24:15;13.27;;;7.40;;
20734;SDS011;10528;52.124;5.196;2023-11-21T04:26:45;14.80;;;7.30;;
20734;SDS011;10528;52.124;5.196;2023-11-21T04:29:12;12.30;;;6.72;;
20734;SDS011;10528;52.124;5.196;2023-11-21T04:31:39;9.93;;;5.78;;
20734;SDS011;10528;52.124;5.196;2023-11-21T04:34:07;9.65;;;6.30;;
20734;SDS011;10528;52.124;5.196;2023-11-21T04:36:34;13.40;;;6.55;;
20734;SDS011;10528;52.124;5.196;2023-11-21T04:39:01;9.88;;;6.53;;
20734;SDS011;10528;52.124;5.196;2023-11-21T04:41:29;10.73;;;6.28;;
20734;SDS011;10528;52.124;5.196;2023-11-21T04:43:58;10.15;;;6.50;;
20734;SDS011;10528;52.124;5.196;2023-11-21T04:46:27;9.15;;;5.70;;
20734;SDS011;10528;52.124;5.196;2023-11-21T04:48:54;8.65;;;6.55;;
20734;SDS011;10528;52.124;5.196;2023-11-21T04:51:21;10.05;;;6.45;;
20734;SDS011;10528;52.124;5.196;2023-11-21T04:53:48;10.88;;;6.28;;
20734;SDS011;10528;52.124;5.196;2023-11-21T04:56:15;10.32;;;6.53;;
20734;SDS011;10528;52.124;5.196;2023-11-21T04:58:42;8.57;;;5.80;;
20734;SDS011;10528;52.124;5.196;2023-11-21T05:01:09;11.07;;;6.18;;
20734;SDS011;10528;52.124;5.196;2023-11-21T05:03:36;11.82;;;6.57;;
20734;SDS011;10528;52.124;5.196;2023-11-21T05:06:05;11.00;;;6.40;;
20734;SDS011;10528;52.124;5.196;2023-11-21T05:08:32;14.02;;;7.03;;
20734;SDS011;10528;52.124;5.196;2023-11-21T05:10:59;10.63;;;6.35;;
20734;SDS011;10528;52.124;5.196;2023-11-21T05:13:26;9.68;;;6.15;;
20734;SDS011;10528;52.124;5.196;2023-11-21T05:15:54;11.02;;;6.72;;
20734;SDS011;10528;52.124;5.196;2023-11-21T05:18:24;9.85;;;6.80;;
20734;SDS011;10528;52.124;5.196;2023-11-21T05:20:56;10.25;;;5.85;;
20734;SDS011;10528;52.124;5.196;2023-11-21T05:23:23;10.15;;;6.60;;
20734;SDS011;10528;52.124;5.196;2023-11-21T05:25:51;7.85;;;5.97;;
20734;SDS011;10528;52.124;5.196;2023-11-21T05:28:18;7.75;;;5.32;;
20734;SDS011;10528;52.124;5.196;2023-11-21T05:30:45;12.70;;;6.43;;
20734;SDS011;10528;52.124;5.196;2023-11-21T05:33:11;11.95;;;5.90;;
20734;SDS011;10528;52.124;5.196;2023-11-21T05:35:38;9.70;;;5.40;;
20734;SDS011;10528;52.124;5.196;2023-11-21T05:38:05;12.25;;;5.65;;
20734;SDS011;10528;52.124;5.196;2023-11-21T05:40:32;9.07;;;5.38;;
20734;SDS011;10528;52.124;5.196;2023-11-21T05:42:59;11.55;;;5.88;;
20734;SDS011;10528;52.124;5.196;2023-11-21T05:45:26;12.90;;;5.85;;
20734;SDS011;10528;52.124;5.196;2023-11-21T05:47:55;7.75;;;5.70;;
20734;SDS011;10528;52.124;5.196;2023-11-21T05:50:22;11.43;;;6.10;;
20734;SDS011;10528;52.124;5.196;2023-11-21T05:52:49;9.15;;;5.90;;
20734;SDS011;10528;52.124;5.196;2023-11-21T05:55:16;8.50;;;5.45;;
20734;SDS011;10528;52.124;5.196;2023-11-21T05:57:43;12.23;;;6.32;;
20734;SDS011;10528;52.124;5.196;2023-11-21T06:00:11;8.82;;;5.90;;
20734;SDS011;10528;52.124;5.196;2023-11-21T06:02:49;9.55;;;5.85;;
20734;SDS011;10528;52.124;5.196;2023-11-21T06:05:18;13.57;;;6.10;;
20734;SDS011;10528;52.124;5.196;2023-11-21T06:07:46;8.63;;;5.68;;
20734;SDS011;10528;52.124;5.196;2023-11-21T06:10:13;9.93;;;6.13;;
20734;SDS011;10528;52.124;5.196;2023-11-21T06:12:41;9.63;;;6.10;;
20734;SDS011;10528;52.124;5.196;2023-11-21T06:15:09;10.88;;;6.47;;
20734;SDS011;10528;52.124;5.196;2023-11-21T06:17:40;10.93;;;7.20;;
20734;SDS011;10528;52.124;5.196;2023-11-21T06:20:09;12.38;;;7.05;;
20734;SDS011;10528;52.124;5.196;2023-11-21T06:22:41;11.35;;;6.80;;
20734;SDS011;10528;52.124;5.196;2023-11-21T06:25:10;9.95;;;7.00;;
20734;SDS011;10528;52.124;5.196;2023-11-21T06:27:42;14.45;;;7.65;;
20734;SDS011;10528;52.124;5.196;2023-11-21T06:30:12;10.88;;;7.70;;
20734;SDS011;10528;52.124;5.196;2023-11-21T06:32:42;12.23;;;7.47;;
20734;SDS011;10528;52.124;5.196;2023-11-21T06:35:13;13.48;;;7.85;;
20734;SDS011;10528;52.124;5.196;2023-11-21T06:37:42;18.10;;;8.13;;
20734;SDS011;10528;52.124;5.196;2023-11-21T06:40:15;15.20;;;8.15;;
20734;SDS011;10528;52.124;5.196;2023-11-21T06:42:48;12.82;;;7.90;;
20734;SDS011;10528;52.124;5.196;2023-11-21T06:45:16;14.95;;;8.55;;
20734;SDS011;10528;52.124;5.196;2023-11-21T06:47:43;12.38;;;7.60;;
20734;SDS011;10528;52.124;5.196;2023-11-21T06:50:11;14.63;;;9.02;;
20734;SDS011;10528;52.124;5.196;2023-11-21T06:52:38;12.07;;;8.05;;
20734;SDS011;10528;52.124;5.196;2023-11-21T06:55:05;13.27;;;8.27;;
20734;SDS011;10528;52.124;5.196;2023-11-21T06:57:34;12.43;;;7.95;;
20734;SDS011;10528;52.124;5.196;2023-11-21T07:00:02;11.18;;;8.05;;
20734;SDS011;10528;52.124;5.196;2023-11-21T07:02:29;14.43;;;8.75;;
20734;SDS011;10528;52.124;5.196;2023-11-21T07:04:57;14.30;;;7.97;;
20734;SDS011;10528;52.124;5.196;2023-11-21T07:07:24;13.23;;;8.57;;
20734;SDS011;10528;52.124;5.196;2023-11-21T07:09:51;12.38;;;7.10;;
20734;SDS011;10528;52.124;5.196;2023-11-21T07:12:18;10.60;;;6.80;;
20734;SDS011;10528;52.124;5.196;2023-11-21T07:14:45;13.32;;;6.90;;
20734;SDS011;10528;52.124;5.196;2023-11-21T07:17:12;13.65;;;7.78;;
20734;SDS011;10528;52.124;5.196;2023-11-21T07:19:39;11.05;;;7.50;;
20734;SDS011;10528;52.124;5.196;2023-11-21T07:22:08;15.10;;;7.65;;
20734;SDS011;10528;52.124;5.196;2023-11-21T07:24:35;14.43;;;7.80;;
20734;SDS011;10528;52.124;5.196;2023-11-21T07:27:03;12.48;;;7.32;;
20734;SDS011;10528;52.124;5.196;2023-11-21T07:29:30;10.40;;;7.30;;
20734;SDS011;10528;52.124;5.196;2023-11-21T07:31:57;12.43;;;6.90;;
20734;SDS011;10528;52.124;5.196;2023-11-21T07:34:24;12.80;;;7.53;;
20734;SDS011;10528;52.124;5.196;2023-11-21T07:36:51;10.23;;;6.93;;
20734;SDS011;10528;52.124;5.196;2023-11-21T07:39:18;11.52;;;6.47;;
20734;SDS011;10528;52.124;5.196;2023-11-21T07:41:45;11.27;;;6.57;;
20734;SDS011;10528;52.124;5.196;2023-11-21T07:44:15;8.00;;;5.53;;
20734;SDS011;10528;52.124;5.196;2023-11-21T07:46:43;11.90;;;5.20;;
20734;SDS011;10528;52.124;5.196;2023-11-21T07:49:11;8.70;;;5.22;;
20734;SDS011;10528;52.124;5.196;2023-11-21T07:51:43;7.10;;;4.90;;
20734;SDS011;10528;52.124;5.196;2023-11-21T07:54:10;7.60;;;4.57;;
20734;SDS011;10528;52.124;5.196;2023-11-21T07:56:38;9.18;;;4.90;;
20734;SDS011;10528;52.124;5.196;2023-11-21T07:59:05;8.77;;;4.63;;
20734;SDS011;10528;52.124;5.196;2023-11-21T08:01:31;7.53;;;4.25;;
20734;SDS011;10528;52.124;5.196;2023-11-21T08:03:59;7.07;;;4.55;;
20734;SDS011;10528;52.124;5.196;2023-11-21T08:06:30;8.05;;;4.55;;
20734;SDS011;10528;52.124;5.196;2023-11-21T08:08:57;6.55;;;4.28;;
20734;SDS011;10528;52.124;5.196;2023-11-21T08:11:25;8.38;;;4.45;;
20734;SDS011;10528;52.124;5.196;2023-11-21T08:13:55;7.70;;;4.93;;
20734;SDS011;10528;52.124;5.196;2023-11-21T08:16:23;7.97;;;4.55;;
20734;SDS011;10528;52.124;5.196;2023-11-21T08:18:50;6.55;;;4.45;;
20734;SDS011;10528;52.124;5.196;2023-11-21T08:21:17;7.50;;;4.30;;
20734;SDS011;10528;52.124;5.196;2023-11-21T08:23:45;7.07;;;4.50;;
20734;SDS011;10528;52.124;5.196;2023-11-21T08:26:15;6.00;;;4.03;;
20734;SDS011;10528;52.124;5.196;2023-11-21T08:28:43;6.82;;;4.47;;
20734;SDS011;10528;52.124;5.196;2023-11-21T08:31:10;7.30;;;4.80;;
20734;SDS011;10528;52.124;5.196;2023-11-21T08:33:39;8.68;;;4.85;;
20734;SDS011;10528;52.124;5.196;2023-11-21T08:36:07;8.88;;;4.88;;
20734;SDS011;10528;52.124;5.196;2023-11-21T08:38:35;9.50;;;5.03;;
20734;SDS011;10528;52.124;5.196;2023-11-21T08:41:05;8.10;;;5.47;;
20734;SDS011;10528;52.124;5.196;2023-11-21T08:43:37;7.00;;;5.00;;
20734;SDS011;10528;52.124;5.196;2023-11-21T08:46:06;7.97;;;4.68;;
20734;SDS011;10528;52.124;5.196;2023-11-21T08:48:35;9.65;;;5.45;;
20734;SDS011;10528;52.124;5.196;2023-11-21T08:51:03;9.05;;;5.40;;
20734;SDS011;10528;52.124;5.196;2023-11-21T08:53:31;7.93;;;5.22;;
20734;SDS011;10528;52.124;5.196;2023-11-21T08:55:59;8.25;;;5.20;;
20734;SDS011;10528;52.124;5.196;2023-11-21T08:58:26;8.18;;;5.55;;
20734;SDS011;10528;52.124;5.196;2023-11-21T09:00:53;9.70;;;6.25;;
20734;SDS011;10528;52.124;5.196;2023-11-21T09:03:20;9.05;;;6.30;;
20734;SDS011;10528;52.124;5.196;2023-11-21T09:05:48;10.32;;;5.55;;
20734;SDS011;10528;52.124;5.196;2023-11-21T09:08:15;8.82;;;6.05;;
20734;SDS011;10528;52.124;5.196;2023-11-21T09:10:42;9.60;;;6.35;;
20734;SDS011;10528;52.124;5.196;2023-11-21T09:13:13;10.90;;;7.05;;
20734;SDS011;10528;52.124;5.196;2023-11-21T09:15:43;11.45;;;6.72;;
20734;SDS011;10528;52.124;5.196;2023-11-21T09:18:15;9.77;;;7.03;;
20734;SDS011;10528;52.124;5.196;2023-11-21T09:20:42;12.77;;;7.80;;
20734;SDS011;10528;52.124;5.196;2023-11-21T09:23:10;10.32;;;7.18;;
20734;SDS011;10528;52.124;5.196;2023-11-21T09:25:37;10.80;;;7.50;;
20734;SDS011;10528;52.124;5.196;2023-11-21T09:28:05;10.32;;;7.10;;
20734;SDS011;10528;52.124;5.196;2023-11-21T09:30:35;10.70;;;7.03;;
20734;SDS011;10528;52.124;5.196;2023-11-21T09:33:03;9.55;;;6.65;;
20734;SDS011;10528;52.124;5.196;2023-11-21T09:35:33;13.02;;;7.50;;
20734;SDS011;10528;52.124;5.196;2023-11-21T09:38:00;10.48;;;6.68;;
20734;SDS011;10528;52.124;5.196;2023-11-21T09:40:28;9.27;;;7.22;;
20734;SDS011;10528;52.124;5.196;2023-11-21T09:42:57;9.10;;;6.60;;
20734;SDS011;10528;52.124;5.196;2023-11-21T09:45:29;10.10;;;6.90;;
20734;SDS011;10528;52.124;5.196;2023-11-21T09:48:01;11.32;;;7.00;;
20734;SDS011;10528;52.124;5.196;2023-11-21T09:50:29;9.40;;;6.78;;
20734;SDS011;10528;52.124;5.196;2023-11-21T09:53:09;7.82;;;6.03;;
20734;SDS011;10528;52.124;5.196;2023-11-21T09:55:48;9.25;;;6.25;;
20734;SDS011;10528;52.124;5.196;2023-11-21T09:58:18;10.07;;;5.88;;
20734;SDS011;10528;52.124;5.196;2023-11-21T10:00:49;7.25;;;5.55;;
20734;SDS011;10528;52.124;5.196;2023-11-21T10:03:25;9.60;;;5.80;;
20734;SDS011;10528;52.124;5.196;2023-11-21T10:05:53;8.40;;;5.70;;
20734;SDS011;10528;52.124;5.196;2023-11-21T10:08:25;7.95;;;5.45;;
20734;SDS011;10528;52.124;5.196;2023-11-21T10:11:11;9.13;;;5.85;;
20734;SDS011;10528;52.124;5.196;2023-11-21T10:13:41;8.23;;;5.38;;
20734;SDS011;10528;52.124;5.196;2023-11-21T10:16:13;10.13;;;5.93;;
20734;SDS011;10528;52.124;5.196;2023-11-21T10:18:48;9.18;;;5.68;;
20734;SDS011;10528;52.124;5.196;2023-11-21T10:21:28;8.73;;;5.68;;
20734;SDS011;10528;52.124;5.196;2023-11-21T10:23:56;8.40;;;5.57;;
20734;SDS011;10528;52.124;5.196;2023-11-21T10:26:23;10.73;;;6.50;;
20734;SDS011;10528;52.124;5.196;2023-11-21T10:28:57;9.38;;;5.70;;
20734;SDS011;10528;52.124;5.196;2023-11-21T10:31:26;9.32;;;5.35;;
20734;SDS011;10528;52.124;5.196;2023-11-21T10:33:54;9.15;;;5.30;;
20734;SDS011;10528;52.124;5.196;2023-11-21T10:36:35;7.90;;;4.97;;
20734;SDS011;10528;52.124;5.196;2023-11-21T10:39:02;8.35;;;5.18;;
20734;SDS011;10528;52.124;5.196;2023-11-21T10:41:30;7.35;;;4.55;;
20734;SDS011;10528;52.124;5.196;2023-11-21T10:43:57;8.93;;;5.00;;
20734;SDS011;10528;52.124;5.196;2023-11-21T10:46:24;7.05;;;4.18;;
20734;SDS011;10528;52.124;5.196;2023-11-21T10:48:52;9.20;;;5.22;;
20734;SDS011;10528;52.124;5.196;2023-11-21T10:51:22;9.02;;;4.90;;
20734;SDS011;10528;52.124;5.196;2023-11-21T10:53:52;9.13;;;5.85;;
20734;SDS011;10528;52.124;5.196;2023-11-21T10:56:19;11.43;;;5.45;;
20734;SDS011;10528;52.124;5.196;2023-11-21T10:58:50;11.15;;;5.60;;
20734;SDS011;10528;52.124;5.196;2023-11-21T11:01:18;10.48;;;5.20;;
20734;SDS011;10528;52.124;5.196;2023-11-21T11:03:50;9.15;;;5.90;;
20734;SDS011;10528;52.124;5.196;2023-11-21T11:06:21;9.52;;;5.32;;
20734;SDS011;10528;52.124;5.196;2023-11-21T11:08:52;11.35;;;5.53;;
20734;SDS011;10528;52.124;5.196;2023-11-21T11:11:20;9.52;;;5.70;;
20734;SDS011;10528;52.124;5.196;2023-11-21T11:13:48;8.88;;;5.68;;
20734;SDS011;10528;52.124;5.196;2023-11-21T11:16:16;10.40;;;6.05;;
20734;SDS011;10528;52.124;5.196;2023-11-21T11:18:44;10.27;;;5.68;;
20734;SDS011;10528;52.124;5.196;2023-11-21T11:27:21;10.55;;;6.60;;
20734;SDS011;10528;52.124;5.196;2023-11-21T11:33:14;12.07;;;7.65;;
20734;SDS011;10528;52.124;5.196;2023-11-21T11:38:39;13.02;;;8.18;;
20734;SDS011;10528;52.124;5.196;2023-11-21T11:41:12;14.68;;;8.63;;
20734;SDS011;10528;52.124;5.196;2023-11-21T11:43:50;13.50;;;8.75;;
20734;SDS011;10528;52.124;5.196;2023-11-21T11:46:18;13.98;;;8.30;;
20734;SDS011;10528;52.124;5.196;2023-11-21T11:48:48;17.10;;;9.93;;
20734;SDS011;10528;52.124;5.196;2023-11-21T11:51:29;15.40;;;8.82;;
20734;SDS011;10528;52.124;5.196;2023-11-21T11:53:57;16.88;;;8.55;;
20734;SDS011;10528;52.124;5.196;2023-11-21T11:58:58;16.73;;;9.45;;
20734;SDS011;10528;52.124;5.196;2023-11-21T12:01:32;15.85;;;9.32;;
20734;SDS011;10528;52.124;5.196;2023-11-21T12:06:59;18.98;;;9.88;;
20734;SDS011;10528;52.124;5.196;2023-11-21T12:09:29;16.55;;;9.60;;
20734;SDS011;10528;52.124;5.196;2023-11-21T12:11:58;13.98;;;8.27;;
20734;SDS011;10528;52.124;5.196;2023-11-21T12:14:26;15.52;;;8.57;;
20734;SDS011;10528;52.124;5.196;2023-11-21T12:16:54;15.18;;;9.68;;
20734;SDS011;10528;52.124;5.196;2023-11-21T12:19:21;15.63;;;9.57;;
20734;SDS011;10528;52.124;5.196;2023-11-21T12:21:48;16.80;;;10.05;;
20734;SDS011;10528;52.124;5.196;2023-11-21T12:24:16;18.27;;;10.75;;
20734;SDS011;10528;52.124;5.196;2023-11-21T12:26:43;18.63;;;11.68;;
20734;SDS011;10528;52.124;5.196;2023-11-21T12:29:10;18.48;;;11.43;;
20734;SDS011;10528;52.124;5.196;2023-11-21T12:31:37;15.40;;;10.13;;
20734;SDS011;10528;52.124;5.196;2023-11-21T12:34:06;18.23;;;11.10;;
20734;SDS011;10528;52.124;5.196;2023-11-21T12:36:35;16.85;;;10.90;;
20734;SDS011;10528;52.124;5.196;2023-11-21T12:39:02;16.48;;;10.70;;
20734;SDS011;10528;52.124;5.196;2023-11-21T12:41:29;18.73;;;11.70;;
20734;SDS011;10528;52.124;5.196;2023-11-21T12:43:57;16.60;;;10.95;;
20734;SDS011;10528;52.124;5.196;2023-11-21T12:46:24;16.10;;;10.68;;
20734;SDS011;10528;52.124;5.196;2023-11-21T12:48:55;17.17;;;10.88;;
20734;SDS011;10528;52.124;5.196;2023-11-21T12:51:24;17.60;;;10.80;;
20734;SDS011;10528;52.124;5.196;2023-11-21T12:53:51;18.05;;;10.77;;
20734;SDS011;10528;52.124;5.196;2023-11-21T12:56:21;17.23;;;10.75;;
20734;SDS011;10528;52.124;5.196;2023-11-21T12:58:49;14.25;;;10.10;;
20734;SDS011;10528;52.124;5.196;2023-11-21T13:01:20;16.90;;;10.68;;
20734;SDS011;10528;52.124;5.196;2023-11-21T13:03:55;13.65;;;9.35;;
20734;SDS011;10528;52.124;5.196;2023-11-21T13:06:24;14.10;;;8.63;;
20734;SDS011;10528;52.124;5.196;2023-11-21T13:08:53;15.65;;;10.20;;
20734;SDS011;10528;52.124;5.196;2023-11-21T13:11:23;19.05;;;9.68;;
20734;SDS011;10528;52.124;5.196;2023-11-21T13:13:52;13.52;;;8.52;;
20734;SDS011;10528;52.124;5.196;2023-11-21T13:16:20;12.95;;;8.10;;
20734;SDS011;10528;52.124;5.196;2023-11-21T13:18:47;13.95;;;8.38;;
20734;SDS011;10528;52.124;5.196;2023-11-21T13:21:14;12.70;;;7.75;;
20734;SDS011;10528;52.124;5.196;2023-11-21T13:23:42;10.93;;;7.13;;
20734;SDS011;10528;52.124;5.196;2023-11-21T13:26:12;12.52;;;7.00;;
20734;SDS011;10528;52.124;5.196;2023-11-21T13:28:41;9.32;;;5.90;;
20734;SDS011;10528;52.124;5.196;2023-11-21T13:31:13;7.88;;;4.88;;
20734;SDS011;10528;52.124;5.196;2023-11-21T13:33:53;5.47;;;3.40;;
20734;SDS011;10528;52.124;5.196;2023-11-21T13:36:30;6.45;;;3.53;;
20734;SDS011;10528;52.124;5.196;2023-11-21T13:38:59;6.05;;;3.38;;
20734;SDS011;10528;52.124;5.196;2023-11-21T13:41:33;5.22;;;3.13;;
20734;SDS011;10528;52.124;5.196;2023-11-21T13:44:00;7.15;;;3.25;;
20734;SDS011;10528;52.124;5.196;2023-11-21T13:46:43;5.82;;;3.17;;
20734;SDS011;10528;52.124;5.196;2023-11-21T13:49:12;6.53;;;3.30;;
20734;SDS011;10528;52.124;5.196;2023-11-21T13:51:41;5.00;;;3.38;;
20734;SDS011;10528;52.124;5.196;2023-11-21T13:54:11;5.25;;;3.50;;
20734;SDS011;10528;52.124;5.196;2023-11-21T13:56:38;5.35;;;3.30;;
20734;SDS011;10528;52.124;5.196;2023-11-21T13:59:07;5.20;;;3.58;;
20734;SDS011;10528;52.124;5.196;2023-11-21T14:01:43;5.45;;;3.30;;
20734;SDS011;10528;52.124;5.196;2023-11-21T14:04:23;6.43;;;3.63;;
20734;SDS011;10528;52.124;5.196;2023-11-21T14:06:57;8.07;;;5.43;;
20734;SDS011;10528;52.124;5.196;2023-11-21T14:09:27;11.27;;;7.05;;
20734;SDS011;10528;52.124;5.196;2023-11-21T14:12:09;10.85;;;7.03;;
20734;SDS011;10528;52.124;5.196;2023-11-21T14:14:38;10.15;;;7.13;;
20734;SDS011;10528;52.124;5.196;2023-11-21T14:17:05;12.45;;;8.13;;
20734;SDS011;10528;52.124;5.196;2023-11-21T14:19:33;12.85;;;8.52;;
20734;SDS011;10528;52.124;5.196;2023-11-21T14:22:03;14.13;;;8.93;;
20734;SDS011;10528;52.124;5.196;2023-11-21T14:24:30;12.75;;;8.48;;
20734;SDS011;10528;52.124;5.196;2023-11-21T14:26:58;16.10;;;10.45;;
20734;SDS011;10528;52.124;5.196;2023-11-21T14:29:26;15.30;;;10.20;;
20734;SDS011;10528;52.124;5.196;2023-11-21T14:31:53;18.23;;;11.15;;
20734;SDS011;10528;52.124;5.196;2023-11-21T14:34:23;16.88;;;11.50;;
20734;SDS011;10528;52.124;5.196;2023-11-21T14:36:50;17.67;;;11.63;;
20734;SDS011;10528;52.124;5.196;2023-11-21T14:39:17;19.25;;;12.32;;
20734;SDS011;10528;52.124;5.196;2023-11-21T14:41:53;19.27;;;11.95;;
20734;SDS011;10528;52.124;5.196;2023-11-21T14:44:25;20.52;;;13.68;;
20734;SDS011;10528;52.124;5.196;2023-11-21T14:46:55;19.95;;;13.35;;
20734;SDS011;10528;52.124;5.196;2023-11-21T14:49:24;18.10;;;13.15;;
20734;SDS011;10528;52.124;5.196;2023-11-21T14:51:54;18.05;;;12.95;;
20734;SDS011;10528;52.124;5.196;2023-11-21T14:54:30;21.05;;;13.68;;
20734;SDS011;10528;52.124;5.196;2023-11-21T14:57:11;18.65;;;12.48;;
20734;SDS011;10528;52.124;5.196;2023-11-21T14:59:45;17.70;;;11.95;;
20734;SDS011;10528;52.124;5.196;2023-11-21T15:02:20;17.98;;;11.88;;
20734;SDS011;10528;52.124;5.196;2023-11-21T15:04:49;18.52;;;12.18;;
20734;SDS011;10528;52.124;5.196;2023-11-21T15:07:19;15.95;;;11.85;;